| time (UTC) | temp F | wind direction | speed knots | gust knots | rain 1hr in | rain 24hr in | rain mn in | humidity % | barometer mb |
| 20260508071538 | 35 | 0 | 0.0 | 0.0 | 0.00 | 0.00 | 0.00 | 80 | 1004.3 |
| 20260508071247 | 35 | 0 | 0.0 | 0.0 | 0.00 | 0.00 | 0.00 | 79 | 1004.4 |
| 20260508071208 | 35 | 0 | 0.0 | 0.0 | 0.00 | 0.00 | 0.00 | 79 | 1004.4 |
| 20260508070903 | 35 | 0 | 0.0 | 0.0 | 0.00 | 0.00 | 0.00 | 79 | 1004.4 |
| 20260508070439 | 35 | 0 | 0.0 | 0.0 | 0.00 | 0.00 | 0.00 | 80 | 1004.4 |
| 20260508070306 | 36 | 0 | 0.0 | 0.0 | 0.00 | 0.00 | 0.00 | 79 | 1004.3 |
| 20260508070004 | 36 | 0 | 0.0 | 0.0 | 0.00 | 0.00 | 0.00 | 79 | 1004.3 |
| 20260508065414 | 36 | 0 | 0.0 | 0.0 | 0.00 | 0.00 | 0.00 | 79 | 1004.3 |
| 20260508065338 | 36 | 0 | 0.0 | 0.0 | 0.00 | 0.00 | 0.00 | 79 | 1004.3 |
| 20260508065103 | 36 | 142 | 0.0 | 0.9 | 0.00 | 0.00 | 0.00 | 78 | 1004.2 |
| 20260508064506 | 36 | 142 | 0.0 | 1.7 | 0.00 | 0.00 | 0.00 | 79 | 1004.3 |
| 20260508064239 | 36 | 142 | 0.0 | 1.7 | 0.00 | 0.00 | 0.00 | 78 | 1004.4 |
| 20260508064203 | 36 | 142 | 0.0 | 1.7 | 0.00 | 0.00 | 0.00 | 79 | 1004.4 |
| 20260508063303 | 36 | 0 | 0.0 | 0.0 | 0.00 | 0.00 | 0.00 | 78 | 1004.5 |
| 20260508063139 | 37 | 142 | 0.0 | 0.9 | 0.00 | 0.00 | 0.00 | 78 | 1004.5 |
| 20260508062707 | 37 | 142 | 0.0 | 0.9 | 0.00 | 0.00 | 0.00 | 77 | 1004.5 |
| 20260508062403 | 37 | 142 | 0.0 | 0.9 | 0.00 | 0.00 | 0.00 | 76 | 1004.5 |
| 20260508062040 | 37 | 143 | 0.0 | 0.9 | 0.00 | 0.00 | 0.00 | 76 | 1004.5 |
| 20260508061807 | 38 | 145 | 0.0 | 1.7 | 0.00 | 0.00 | 0.00 | 76 | 1004.5 |
| 20260508061503 | 38 | 145 | 0.0 | 1.7 | 0.00 | 0.00 | 0.00 | 76 | 1004.4 |
| 20260508060939 | 38 | 176 | 0.0 | 0.9 | 0.00 | 0.00 | 0.00 | 77 | 1004.6 |
| 20260508060908 | 38 | 176 | 0.0 | 0.9 | 0.00 | 0.00 | 0.00 | 77 | 1004.6 |
| 20260508060603 | 38 | 176 | 0.0 | 0.9 | 0.00 | 0.00 | 0.00 | 77 | 1004.6 |
| 20260508060007 | 38 | 0 | 0.0 | 0.0 | 0.00 | 0.00 | 0.00 | 76 | 1004.8 |
| 20260508055839 | 38 | 0 | 0.0 | 0.0 | 0.00 | 0.00 | 0.00 | 76 | 1004.9 |
| 20260508055703 | 38 | 0 | 0.0 | 0.0 | 0.00 | 0.00 | 0.00 | 75 | 1004.9 |
| 20260508055107 | 39 | 176 | 0.0 | 0.9 | 0.00 | 0.00 | 0.00 | 74 | 1005.1 |
| 20260508054803 | 39 | 163 | 0.0 | 4.3 | 0.00 | 0.00 | 0.00 | 74 | 1005.1 |
| 20260508054739 | 39 | 169 | 0.0 | 4.3 | 0.00 | 0.00 | 0.00 | 74 | 1005.1 |
| 20260508054208 | 40 | 170 | 0.9 | 4.3 | 0.00 | 0.00 | 0.00 | 74 | 1005.0 |
| 20260508053903 | 40 | 170 | 0.9 | 4.3 | 0.00 | 0.01 | 0.00 | 73 | 1005.0 |
| 20260508053638 | 39 | 175 | 0.0 | 3.5 | 0.00 | 0.00 | 0.00 | 74 | 1005.0 |
| 20260508053309 | 39 | 0 | 0.0 | 0.0 | 0.00 | 0.00 | 0.00 | 74 | 1005.0 |
| 20260508053003 | 38 | 0 | 0.0 | 0.0 | 0.00 | 0.01 | 0.00 | 76 | 1005.0 |
| 20260508052538 | 37 | 0 | 0.0 | 0.0 | 0.00 | 0.00 | 0.00 | 78 | 1005.1 |
| 20260508052407 | 37 | 0 | 0.0 | 0.0 | 0.00 | 0.00 | 0.00 | 78 | 1005.2 |
| 20260508052103 | 37 | 0 | 0.0 | 0.0 | 0.00 | 0.01 | 0.00 | 79 | 1005.2 |
| 20260508051511 | 37 | 0 | 0.0 | 0.0 | 0.00 | 0.02 | 0.00 | 79 | 1005.3 |
| 20260508051439 | 37 | 0 | 0.0 | 0.0 | 0.00 | 0.02 | 0.00 | 79 | 1005.3 |
| 20260508051203 | 37 | 0 | 0.0 | 0.0 | 0.00 | 0.04 | 0.00 | 78 | 1005.3 |
| 20260508050613 | 37 | 0 | 0.0 | 0.0 | 0.00 | 0.05 | 0.00 | 79 | 1005.3 |
| 20260508050338 | 37 | 0 | 0.0 | 0.0 | 0.00 | 0.07 | 0.00 | 79 | 1005.2 |
| 20260508050303 | 37 | 0 | 0.0 | 0.0 | 0.00 | 0.07 | 0.00 | 79 | 1005.2 |
| 20260508045707 | 37 | 0 | 0.0 | 0.0 | 0.00 | 0.07 | 0.00 | 79 | 1005.2 |
| 20260508045403 | 37 | 0 | 0.0 | 0.0 | 0.00 | 0.07 | 0.00 | 79 | 1005.2 |
| 20260508045239 | 36 | 0 | 0.0 | 0.0 | 0.00 | 0.07 | 0.00 | 78 | 1005.3 |
| 20260508044807 | 36 | 0 | 0.0 | 0.0 | 0.00 | 0.07 | 0.00 | 77 | 1005.2 |
| 20260508044503 | 36 | 0 | 0.0 | 0.0 | 0.00 | 0.08 | 0.00 | 77 | 1005.3 |
| 20260508044138 | 36 | 0 | 0.0 | 0.0 | 0.00 | 0.07 | 0.00 | 78 | 1005.3 |
| 20260508043908 | 37 | 0 | 0.0 | 0.0 | 0.00 | 0.07 | 0.00 | 77 | 1005.3 |
| 20260508043604 | 37 | 0 | 0.0 | 0.0 | 0.00 | 0.08 | 0.00 | 76 | 1005.3 |
| 20260508043039 | 37 | 0 | 0.0 | 0.0 | 0.00 | 0.07 | 0.00 | 77 | 1005.4 |
| 20260508043006 | 37 | 0 | 0.0 | 0.0 | 0.00 | 0.07 | 0.00 | 76 | 1005.3 |
| 20260508042703 | 37 | 0 | 0.0 | 0.0 | 0.00 | 0.09 | 0.00 | 76 | 1005.3 |
| 20260508042108 | 37 | 0 | 0.0 | 0.0 | 0.00 | 0.09 | 0.00 | 75 | 1005.2 |
| 20260508041938 | 37 | 0 | 0.0 | 0.0 | 0.00 | 0.09 | 0.00 | 75 | 1005.2 |
| 20260508041803 | 37 | 0 | 0.0 | 0.0 | 0.00 | 0.09 | 0.00 | 75 | 1005.3 |
| 20260508041206 | 38 | 0 | 0.0 | 0.0 | 0.00 | 0.10 | 0.00 | 76 | 1005.2 |
| 20260508040902 | 38 | 0 | 0.0 | 0.0 | 0.00 | 0.10 | 0.00 | 75 | 1005.3 |
| 20260508040838 | 38 | 0 | 0.0 | 0.0 | 0.00 | 0.10 | 0.00 | 74 | 1005.3 |
| 20260508040306 | 38 | 0 | 0.0 | 0.0 | 0.00 | 0.11 | 0.00 | 75 | 1005.4 |
| 20260508040002 | 38 | 0 | 0.0 | 0.0 | 0.00 | 0.12 | 0.00 | 74 | 1005.4 |
| 20260508035738 | 38 | 0 | 0.0 | 0.0 | 0.00 | 0.11 | 0.12 | 73 | 1005.5 |
| 20260508035406 | 38 | 0 | 0.0 | 0.0 | 0.00 | 0.12 | 0.12 | 73 | 1005.5 |
| 20260508035102 | 38 | 0 | 0.0 | 0.0 | 0.00 | 0.13 | 0.12 | 74 | 1005.5 |
| 20260508034637 | 38 | 0 | 0.0 | 0.0 | 0.00 | 0.12 | 0.12 | 74 | 1005.5 |
| 20260508034506 | 38 | 0 | 0.0 | 0.0 | 0.00 | 0.12 | 0.12 | 74 | 1005.5 |
| 20260508033538 | 39 | 0 | 0.0 | 0.0 | 0.00 | 0.14 | 0.12 | 74 | 1005.6 |
| 20260508032738 | 40 | 0 | 0.0 | 0.0 | 0.00 | 0.14 | 0.12 | 72 | 1005.6 |
| 20260508032706 | 40 | 0 | 0.0 | 0.0 | 0.00 | 0.14 | 0.12 | 72 | 1005.6 |
| 20260508032439 | 40 | 0 | 0.0 | 0.0 | 0.00 | 0.14 | 0.12 | 72 | 1005.6 |
| 20260508031808 | 40 | 0 | 0.0 | 0.0 | 0.00 | 0.14 | 0.12 | 70 | 1005.4 |
| 20260508031338 | 40 | 0 | 0.0 | 0.0 | 0.00 | 0.15 | 0.12 | 71 | 1005.4 |
| 20260508030911 | 41 | 0 | 0.0 | 0.0 | 0.00 | 0.15 | 0.12 | 70 | 1005.4 |
| 20260508030602 | 41 | 0 | 0.0 | 0.0 | 0.00 | 0.15 | 0.12 | 69 | 1005.4 |
| 20260508030238 | 41 | 0 | 0.0 | 0.0 | 0.00 | 0.15 | 0.12 | 69 | 1005.4 |
| 20260508030007 | 41 | 0 | 0.0 | 0.0 | 0.00 | 0.15 | 0.12 | 68 | 1005.3 |
| 20260508025702 | 41 | 0 | 0.0 | 0.0 | 0.00 | 0.15 | 0.12 | 68 | 1005.4 |
| 20260508025138 | 42 | 173 | 0.0 | 1.7 | 0.00 | 0.15 | 0.12 | 69 | 1005.4 |
| 20260508025106 | 42 | 173 | 0.0 | 1.7 | 0.00 | 0.15 | 0.12 | 69 | 1005.3 |
| 20260508024802 | 42 | 173 | 0.0 | 1.7 | 0.00 | 0.15 | 0.12 | 69 | 1005.2 |
| 20260508024210 | 42 | 26 | 0.0 | 1.7 | 0.00 | 0.15 | 0.12 | 69 | 1005.2 |
| 20260508024037 | 42 | 83 | 0.0 | 1.7 | 0.00 | 0.15 | 0.12 | 69 | 1005.2 |
| 20260508023902 | 42 | 170 | 0.0 | 1.7 | 0.00 | 0.16 | 0.12 | 69 | 1005.2 |
| 20260508023002 | 41 | 193 | 0.0 | 1.7 | 0.00 | 0.16 | 0.12 | 69 | 1005.3 |
| 20260508022939 | 41 | 194 | 0.0 | 1.7 | 0.00 | 0.15 | 0.12 | 70 | 1005.3 |
| 20260508022407 | 41 | 176 | 0.0 | 3.5 | 0.00 | 0.17 | 0.12 | 73 | 1005.3 |
| 20260508021837 | 41 | 176 | 0.9 | 3.5 | 0.00 | 0.18 | 0.12 | 70 | 1005.3 |
| 20260508021506 | 41 | 176 | 0.0 | 2.6 | 0.00 | 0.18 | 0.12 | 71 | 1005.3 |
| 20260508021202 | 41 | 176 | 0.0 | 2.6 | 0.00 | 0.18 | 0.12 | 70 | 1005.3 |
| 20260508020737 | 41 | 176 | 0.0 | 0.9 | 0.00 | 0.18 | 0.12 | 69 | 1005.3 |
| 20260508020302 | 41 | 176 | 0.0 | 0.9 | 0.00 | 0.18 | 0.12 | 69 | 1005.3 |
| 20260508015637 | 42 | 0 | 0.0 | 0.0 | 0.00 | 0.18 | 0.12 | 70 | 1005.5 |
| 20260508015402 | 42 | 0 | 0.0 | 0.0 | 0.00 | 0.19 | 0.12 | 70 | 1005.5 |
| 20260508014805 | 42 | 0 | 0.0 | 0.0 | 0.00 | 0.18 | 0.12 | 70 | 1005.3 |
| 20260508014537 | 42 | 0 | 0.0 | 0.0 | 0.00 | 0.18 | 0.12 | 69 | 1005.3 |
| 20260508014502 | 42 | 0 | 0.0 | 0.0 | 0.00 | 0.19 | 0.12 | 69 | 1005.3 |
| 20260508013906 | 43 | 0 | 0.0 | 0.0 | 0.00 | 0.18 | 0.12 | 70 | 1005.4 |
| 20260508013601 | 43 | 0 | 0.0 | 0.0 | 0.00 | 0.20 | 0.12 | 69 | 1005.4 |
| 20260508013437 | 43 | 0 | 0.0 | 0.0 | 0.00 | 0.20 | 0.12 | 70 | 1005.3 |
| 20260508013005 | 43 | 0 | 0.0 | 0.0 | 0.00 | 0.20 | 0.12 | 68 | 1005.3 |
| 20260508012702 | 44 | 0 | 0.0 | 0.0 | 0.00 | 0.20 | 0.12 | 68 | 1005.3 |
| 20260508012336 | 44 | 176 | 0.0 | 0.9 | 0.00 | 0.20 | 0.12 | 68 | 1005.3 |
| 20260508012107 | 44 | 176 | 0.0 | 0.9 | 0.00 | 0.20 | 0.12 | 68 | 1005.4 |
| 20260508011802 | 44 | 176 | 0.0 | 0.9 | 0.00 | 0.20 | 0.12 | 69 | 1005.4 |
| 20260508011238 | 44 | 0 | 0.0 | 0.0 | 0.00 | 0.20 | 0.12 | 65 | 1005.3 |
| 20260508011206 | 44 | 0 | 0.0 | 0.0 | 0.00 | 0.20 | 0.12 | 66 | 1005.4 |
| 20260508010901 | 44 | 0 | 0.0 | 0.0 | 0.00 | 0.20 | 0.12 | 64 | 1005.4 |
| 20260508010305 | 45 | 177 | 0.0 | 0.9 | 0.00 | 0.20 | 0.12 | 64 | 1005.2 |
| 20260508010138 | 45 | 177 | 0.0 | 0.9 | 0.00 | 0.20 | 0.12 | 64 | 1005.2 |
| 20260508010001 | 45 | 177 | 0.0 | 0.9 | 0.00 | 0.20 | 0.12 | 64 | 1005.2 |
| 20260508005406 | 46 | 0 | 0.0 | 0.0 | 0.00 | 0.20 | 0.12 | 62 | 1005.2 |
| 20260508005102 | 46 | 0 | 0.0 | 0.0 | 0.00 | 0.20 | 0.12 | 61 | 1005.2 |
| 20260508005037 | 46 | 0 | 0.0 | 0.0 | 0.00 | 0.20 | 0.12 | 62 | 1005.1 |
| 20260508004506 | 47 | 0 | 0.0 | 0.0 | 0.00 | 0.20 | 0.12 | 62 | 1005.1 |
| 20260508004201 | 47 | 178 | 0.0 | 0.9 | 0.00 | 0.20 | 0.12 | 61 | 1005.0 |
| 20260508003936 | 47 | 178 | 0.0 | 0.9 | 0.00 | 0.20 | 0.12 | 61 | 1005.0 |
| 20260508003301 | 48 | 0 | 0.0 | 0.0 | 0.00 | 0.20 | 0.12 | 60 | 1004.8 |
| 20260508002838 | 48 | 178 | 0.0 | 1.7 | 0.00 | 0.20 | 0.12 | 58 | 1004.8 |
| 20260508002706 | 49 | 178 | 0.0 | 1.7 | 0.00 | 0.20 | 0.12 | 58 | 1004.8 |
| 20260508002401 | 49 | 175 | 0.0 | 3.5 | 0.00 | 0.20 | 0.12 | 57 | 1004.8 |
| 20260508001809 | 50 | 173 | 0.0 | 3.5 | 0.00 | 0.20 | 0.12 | 54 | 1004.7 |
| 20260508001736 | 50 | 173 | 0.0 | 3.5 | 0.00 | 0.20 | 0.12 | 54 | 1004.7 |
| 20260508000905 | 50 | 0 | 0.0 | 0.0 | 0.00 | 0.20 | 0.12 | 53 | 1004.7 |
| 20260508000638 | 50 | 0 | 0.0 | 0.0 | 0.00 | 0.20 | 0.12 | 55 | 1004.6 |
| 20260508000601 | 50 | 0 | 0.0 | 0.0 | 0.00 | 0.21 | 0.12 | 55 | 1004.6 |
| 20260508000005 | 51 | 0 | 0.0 | 0.0 | 0.00 | 0.20 | 0.12 | 52 | 1004.6 |
| 20260507235536 | 51 | 0 | 0.0 | 0.0 | 0.00 | 0.20 | 0.12 | 53 | 1004.5 |
| 20260507235106 | 52 | 112 | 0.0 | 3.5 | 0.00 | 0.20 | 0.12 | 52 | 1004.4 |
| 20260507234801 | 52 | 129 | 0.9 | 3.5 | 0.00 | 0.21 | 0.12 | 49 | 1004.5 |
| 20260507234438 | 52 | 148 | 0.9 | 3.5 | 0.00 | 0.20 | 0.12 | 48 | 1004.3 |
| 20260507234205 | 52 | 177 | 0.9 | 3.5 | 0.00 | 0.20 | 0.12 | 49 | 1004.3 |
| 20260507233337 | 53 | 174 | 1.7 | 6.1 | 0.00 | 0.20 | 0.12 | 49 | 1004.0 |
| 20260507233305 | 53 | 175 | 1.7 | 6.1 | 0.00 | 0.20 | 0.12 | 49 | 1004.0 |
| 20260507233001 | 53 | 171 | 1.7 | 6.1 | 0.00 | 0.21 | 0.12 | 48 | 1003.9 |
| 20260507232406 | 53 | 182 | 0.9 | 5.2 | 0.00 | 0.20 | 0.12 | 49 | 1003.8 |
| 20260507232236 | 53 | 182 | 0.9 | 5.2 | 0.00 | 0.20 | 0.12 | 49 | 1003.9 |
| 20260507232101 | 54 | 182 | 0.9 | 5.2 | 0.00 | 0.21 | 0.12 | 48 | 1003.8 |
| 20260507231506 | 54 | 177 | 0.0 | 1.7 | 0.00 | 0.20 | 0.12 | 48 | 1003.6 |
| 20260507231201 | 54 | 342 | 0.0 | 0.9 | 0.00 | 0.21 | 0.12 | 48 | 1003.7 |
| 20260507231136 | 54 | 342 | 0.0 | 0.9 | 0.00 | 0.20 | 0.12 | 48 | 1003.6 |
| 20260507230301 | 55 | 174 | 0.9 | 4.3 | 0.00 | 0.22 | 0.12 | 48 | 1003.5 |
| 20260507230036 | 55 | 155 | 0.9 | 5.2 | 0.00 | 0.21 | 0.12 | 48 | 1003.4 |
| 20260507225706 | 55 | 144 | 0.9 | 5.2 | 0.00 | 0.21 | 0.12 | 47 | 1003.3 |
| 20260507225401 | 55 | 115 | 0.9 | 5.2 | 0.00 | 0.23 | 0.12 | 46 | 1003.3 |
| 20260507224936 | 55 | 133 | 0.9 | 5.2 | 0.00 | 0.23 | 0.12 | 47 | 1003.1 |
| 20260507224806 | 56 | 146 | 0.9 | 5.2 | 0.00 | 0.23 | 0.12 | 48 | 1003.1 |
| 20260507224501 | 56 | 175 | 1.7 | 6.1 | 0.00 | 0.24 | 0.12 | 48 | 1003.1 |
| 20260507223908 | 56 | 154 | 1.7 | 6.1 | 0.00 | 0.23 | 0.12 | 46 | 1002.8 |
| 20260507223837 | 56 | 154 | 1.7 | 6.1 | 0.00 | 0.23 | 0.12 | 46 | 1002.8 |
| 20260507223005 | 57 | 133 | 1.7 | 6.1 | 0.00 | 0.25 | 0.12 | 46 | 1002.7 |
| 20260507222736 | 57 | 177 | 1.7 | 4.3 | 0.00 | 0.25 | 0.12 | 44 | 1002.7 |
| 20260507222701 | 57 | 181 | 0.9 | 4.3 | 0.00 | 0.26 | 0.12 | 44 | 1002.7 |
| 20260507221801 | 58 | 185 | 2.6 | 7.0 | 0.00 | 0.26 | 0.12 | 41 | 1002.5 |
| 20260507221636 | 58 | 184 | 2.6 | 7.0 | 0.00 | 0.25 | 0.12 | 40 | 1002.5 |
| 20260507221205 | 58 | 174 | 1.7 | 6.1 | 0.00 | 0.25 | 0.12 | 39 | 1002.5 |
| 20260507220901 | 59 | 175 | 1.7 | 6.1 | 0.00 | 0.27 | 0.12 | 40 | 1002.5 |
| 20260507220537 | 59 | 168 | 1.7 | 6.1 | 0.00 | 0.27 | 0.12 | 40 | 1002.5 |
| 20260507220304 | 59 | 168 | 1.7 | 7.0 | 0.00 | 0.28 | 0.12 | 39 | 1002.4 |
| 20260507220001 | 59 | 178 | 2.6 | 7.8 | 0.00 | 0.29 | 0.12 | 38 | 1002.5 |
| 20260507215436 | 59 | 197 | 2.6 | 7.8 | 0.00 | 0.31 | 0.12 | 40 | 1002.3 |
| 20260507215100 | 59 | 191 | 2.6 | 7.8 | 0.00 | 0.33 | 0.12 | 40 | 1002.3 |
| 20260507214504 | 60 | 168 | 1.7 | 7.0 | 0.00 | 0.36 | 0.12 | 40 | 1002.3 |
| 20260507214337 | 60 | 164 | 1.7 | 7.0 | 0.00 | 0.36 | 0.12 | 39 | 1002.3 |
| 20260507214200 | 60 | 161 | 1.7 | 7.0 | 0.00 | 0.37 | 0.12 | 38 | 1002.4 |
| 20260507213609 | 60 | 178 | 3.5 | 10.4 | 0.00 | 0.38 | 0.12 | 40 | 1002.3 |
| 20260507213300 | 60 | 182 | 3.5 | 10.4 | 0.00 | 0.40 | 0.12 | 40 | 1002.3 |
| 20260507213236 | 60 | 183 | 3.5 | 10.4 | 0.00 | 0.40 | 0.12 | 40 | 1002.2 |
| 20260507212705 | 60 | 166 | 1.7 | 7.8 | 0.00 | 0.40 | 0.12 | 39 | 1002.2 |
| 20260507212400 | 60 | 163 | 2.6 | 5.2 | 0.00 | 0.41 | 0.12 | 39 | 1002.2 |
| 20260507212135 | 60 | 175 | 2.6 | 8.7 | 0.00 | 0.41 | 0.12 | 41 | 1002.1 |
| 20260507211805 | 60 | 185 | 2.6 | 8.7 | 0.00 | 0.41 | 0.12 | 42 | 1002.1 |
| 20260507211500 | 60 | 186 | 2.6 | 8.7 | 0.00 | 0.43 | 0.12 | 41 | 1002.1 |
| 20260507211036 | 60 | 181 | 1.7 | 6.1 | 0.00 | 0.43 | 0.12 | 44 | 1002.0 |
| 20260507210904 | 60 | 179 | 1.7 | 6.1 | 0.00 | 0.43 | 0.12 | 43 | 1002.0 |
| 20260507210600 | 60 | 182 | 1.7 | 6.1 | 0.00 | 0.44 | 0.12 | 45 | 1002.0 |
| 20260507205937 | 61 | 184 | 2.6 | 7.0 | 0.00 | 0.43 | 0.12 | 43 | 1002.0 |
| 20260507205700 | 61 | 184 | 3.5 | 7.0 | 0.00 | 0.45 | 0.12 | 43 | 1002.0 |
| 20260507205105 | 62 | 183 | 2.6 | 7.8 | 0.00 | 0.46 | 0.12 | 44 | 1001.9 |
| 20260507204836 | 62 | 192 | 2.6 | 7.8 | 0.00 | 0.46 | 0.12 | 44 | 1002.0 |
| 20260507204800 | 62 | 190 | 2.6 | 7.8 | 0.00 | 0.48 | 0.12 | 44 | 1002.0 |
| 20260507204205 | 61 | 177 | 2.6 | 7.8 | 0.00 | 0.50 | 0.12 | 44 | 1001.9 |
| 20260507203900 | 61 | 182 | 2.6 | 7.0 | 0.00 | 0.50 | 0.12 | 46 | 1002.0 |
| 20260507203736 | 61 | 185 | 2.6 | 7.0 | 0.00 | 0.50 | 0.12 | 47 | 1001.9 |
| 20260507203345 | 61 | 193 | 2.6 | 7.0 | 0.00 | 0.50 | 0.12 | 48 | 1001.9 |
| 20260507203304 | 61 | 193 | 2.6 | 7.0 | 0.00 | 0.50 | 0.12 | 48 | 1001.9 |
| 20260507203000 | 62 | 194 | 2.6 | 6.1 | 0.00 | 0.52 | 0.12 | 48 | 1001.9 |
| 20260507202636 | 62 | 202 | 2.6 | 7.8 | 0.00 | 0.51 | 0.12 | 48 | 1001.9 |
| 20260507202409 | 62 | 196 | 2.6 | 7.8 | 0.00 | 0.52 | 0.12 | 49 | 1001.7 |
| 20260507201535 | 62 | 194 | 3.5 | 10.4 | 0.00 | 0.54 | 0.12 | 51 | 1001.7 |
| 20260507201504 | 62 | 195 | 3.5 | 10.4 | 0.00 | 0.55 | 0.12 | 50 | 1001.7 |
| 20260507201200 | 62 | 192 | 3.5 | 10.4 | 0.00 | 0.57 | 0.12 | 51 | 1001.6 |
| 20260507200608 | 61 | 198 | 3.5 | 10.4 | 0.00 | 0.58 | 0.12 | 53 | 1001.7 |
| 20260507200436 | 61 | 196 | 3.5 | 10.4 | 0.00 | 0.58 | 0.12 | 51 | 1001.8 |
| 20260507200300 | 61 | 196 | 2.6 | 10.4 | 0.00 | 0.60 | 0.12 | 51 | 1001.8 |
| 20260507195705 | 60 | 181 | 0.9 | 5.2 | 0.00 | 0.60 | 0.12 | 53 | 1001.8 |
| 20260507195400 | 60 | 175 | 0.9 | 5.2 | 0.00 | 0.61 | 0.12 | 53 | 1001.8 |
| 20260507195335 | 60 | 173 | 0.9 | 5.2 | 0.00 | 0.61 | 0.12 | 53 | 1001.8 |
| 20260507194804 | 60 | 185 | 0.9 | 4.3 | 0.00 | 0.62 | 0.12 | 53 | 1001.9 |
| 20260507194236 | 60 | 203 | 1.7 | 7.0 | 0.00 | 0.62 | 0.12 | 53 | 1002.0 |
| 20260507193904 | 60 | 196 | 1.7 | 7.0 | 0.00 | 0.62 | 0.12 | 53 | 1002.0 |
| 20260507193600 | 60 | 182 | 1.7 | 7.0 | 0.00 | 0.64 | 0.12 | 52 | 1001.9 |
| 20260507193136 | 60 | 181 | 1.7 | 4.3 | 0.00 | 0.63 | 0.12 | 52 | 1001.9 |
| 20260507193005 | 60 | 187 | 1.7 | 4.3 | 0.00 | 0.63 | 0.12 | 52 | 1001.9 |
| 20260507192700 | 60 | 189 | 1.7 | 4.3 | 0.00 | 0.65 | 0.12 | 52 | 1001.9 |
| 20260507192035 | 60 | 209 | 0.9 | 5.2 | 0.00 | 0.66 | 0.12 | 54 | 1002.0 |
| 20260507191800 | 60 | 183 | 0.9 | 5.2 | 0.00 | 0.68 | 0.12 | 53 | 1001.9 |
| 20260507190936 | 60 | 184 | 1.7 | 5.2 | 0.00 | 0.68 | 0.12 | 52 | 1001.9 |
| 20260507190900 | 60 | 184 | 0.9 | 5.2 | 0.00 | 0.70 | 0.12 | 52 | 1001.9 |
| 20260507190304 | 60 | 160 | 0.9 | 7.0 | 0.00 | 0.69 | 0.12 | 51 | 1001.9 |
| 20260507190000 | 61 | 171 | 1.7 | 7.0 | 0.00 | 0.71 | 0.12 | 53 | 1001.9 |
| 20260507185836 | 61 | 182 | 1.7 | 7.0 | 0.00 | 0.70 | 0.12 | 50 | 1001.9 |
| 20260507185059 | 62 | 185 | 2.6 | 6.1 | 0.00 | 0.71 | 0.12 | 50 | 1001.9 |
| 20260507184734 | 62 | 173 | 1.7 | 6.1 | 0.00 | 0.70 | 0.12 | 50 | 1001.8 |
| 20260507184503 | 62 | 190 | 0.9 | 6.1 | 0.00 | 0.70 | 0.12 | 51 | 1001.9 |
| 20260507184159 | 62 | 205 | 0.9 | 6.1 | 0.00 | 0.71 | 0.12 | 51 | 1001.9 |
| 20260507183634 | 62 | 218 | 0.9 | 6.1 | 0.00 | 0.70 | 0.12 | 51 | 1002.0 |
| 20260507183605 | 62 | 218 | 0.9 | 6.1 | 0.00 | 0.70 | 0.12 | 49 | 1002.0 |
| 20260507183300 | 63 | 217 | 0.9 | 5.2 | 0.00 | 0.71 | 0.12 | 50 | 1002.0 |
| 20260507182703 | 63 | 190 | 1.7 | 5.2 | 0.00 | 0.70 | 0.12 | 50 | 1002.1 |
| 20260507182536 | 63 | 188 | 1.7 | 5.2 | 0.00 | 0.70 | 0.12 | 50 | 1002.1 |
| 20260507182400 | 63 | 195 | 2.6 | 5.2 | 0.00 | 0.71 | 0.12 | 50 | 1002.2 |
| 20260507181803 | 62 | 205 | 2.6 | 7.0 | 0.00 | 0.70 | 0.12 | 54 | 1002.3 |
| 20260507181459 | 62 | 199 | 2.6 | 7.8 | 0.00 | 0.71 | 0.12 | 50 | 1002.2 |
| 20260507181436 | 62 | 198 | 2.6 | 7.8 | 0.00 | 0.70 | 0.12 | 50 | 1002.3 |
| 20260507180904 | 61 | 191 | 1.7 | 7.8 | 0.00 | 0.70 | 0.12 | 52 | 1002.3 |
| 20260507180600 | 61 | 192 | 1.7 | 7.8 | 0.00 | 0.71 | 0.12 | 53 | 1002.4 |
| 20260507180334 | 60 | 205 | 1.7 | 7.8 | 0.00 | 0.70 | 0.12 | 56 | 1002.5 |
| 20260507180003 | 60 | 209 | 1.7 | 7.8 | 0.00 | 0.70 | 0.12 | 54 | 1002.5 |
| 20260507175659 | 60 | 191 | 1.7 | 7.8 | 0.00 | 0.71 | 0.12 | 56 | 1002.6 |
| 20260507175234 | 60 | 158 | 1.7 | 5.2 | 0.00 | 0.70 | 0.12 | 55 | 1002.6 |
| 20260507175104 | 60 | 148 | 0.9 | 5.2 | 0.00 | 0.70 | 0.12 | 56 | 1002.6 |
| 20260507174759 | 60 | 163 | 0.9 | 5.2 | 0.00 | 0.71 | 0.12 | 57 | 1002.6 |
| 20260507174208 | 59 | 193 | 0.9 | 4.3 | 0.00 | 0.70 | 0.12 | 57 | 1002.6 |
| 20260507174135 | 59 | 193 | 0.9 | 4.3 | 0.00 | 0.70 | 0.12 | 57 | 1002.6 |
| 20260507173304 | 59 | 176 | 0.9 | 5.2 | 0.00 | 0.70 | 0.12 | 57 | 1002.7 |
| 20260507173035 | 59 | 185 | 1.7 | 5.2 | 0.00 | 0.70 | 0.12 | 57 | 1002.7 |
| 20260507172959 | 59 | 188 | 1.7 | 5.2 | 0.00 | 0.71 | 0.12 | 57 | 1002.7 |
| 20260507172406 | 59 | 181 | 1.7 | 5.2 | 0.00 | 0.70 | 0.12 | 57 | 1002.6 |
| 20260507172059 | 59 | 168 | 1.7 | 4.3 | 0.00 | 0.71 | 0.12 | 59 | 1002.6 |
| 20260507171934 | 59 | 168 | 1.7 | 4.3 | 0.00 | 0.70 | 0.12 | 58 | 1002.6 |
| 20260507171504 | 59 | 179 | 1.7 | 4.3 | 0.00 | 0.70 | 0.12 | 57 | 1002.7 |
| 20260507171159 | 59 | 178 | 0.9 | 4.3 | 0.00 | 0.71 | 0.12 | 55 | 1002.7 |
| 20260507170836 | 59 | 191 | 1.7 | 5.2 | 0.00 | 0.70 | 0.12 | 55 | 1002.7 |
| 20260507170603 | 59 | 193 | 0.9 | 5.2 | 0.00 | 0.70 | 0.12 | 56 | 1002.7 |
| 20260507170259 | 60 | 193 | 0.9 | 5.2 | 0.00 | 0.71 | 0.12 | 55 | 1002.7 |
| 20260507165735 | 60 | 147 | 0.9 | 5.2 | 0.00 | 0.70 | 0.12 | 56 | 1002.8 |
| 20260507165702 | 60 | 150 | 0.9 | 5.2 | 0.00 | 0.70 | 0.12 | 54 | 1002.8 |
| 20260507165359 | 60 | 125 | 0.9 | 5.2 | 0.00 | 0.71 | 0.12 | 54 | 1002.8 |
| 20260507164802 | 60 | 153 | 0.9 | 3.5 | 0.00 | 0.70 | 0.12 | 57 | 1002.9 |
| 20260507164635 | 60 | 166 | 1.7 | 4.3 | 0.00 | 0.70 | 0.12 | 56 | 1002.9 |
| 20260507164459 | 60 | 188 | 1.7 | 4.3 | 0.00 | 0.71 | 0.12 | 56 | 1003.0 |
| 20260507163903 | 61 | 194 | 1.7 | 5.2 | 0.00 | 0.70 | 0.12 | 57 | 1003.0 |
| 20260507163536 | 60 | 203 | 0.9 | 5.2 | 0.00 | 0.70 | 0.12 | 57 | 1003.1 |
| 20260507163006 | 59 | 126 | 1.7 | 5.2 | 0.00 | 0.70 | 0.12 | 63 | 1003.2 |
| 20260507162659 | 58 | 74 | 1.7 | 5.2 | 0.00 | 0.71 | 0.12 | 62 | 1003.2 |
| 20260507162434 | 58 | 70 | 1.7 | 5.2 | 0.00 | 0.70 | 0.12 | 63 | 1003.2 |
| 20260507162142 | 58 | 29 | 0.9 | 4.3 | 0.00 | 0.70 | 0.12 | 62 | 1003.3 |
| 20260507162103 | 58 | 29 | 0.9 | 4.3 | 0.00 | 0.70 | 0.12 | 62 | 1003.3 |
| 20260507161759 | 58 | 338 | 0.9 | 4.3 | 0.00 | 0.71 | 0.12 | 61 | 1003.3 |
| 20260507161335 | 58 | 24 | 0.9 | 5.2 | 0.00 | 0.70 | 0.12 | 61 | 1003.5 |
| 20260507161203 | 58 | 70 | 1.7 | 6.1 | 0.00 | 0.70 | 0.12 | 60 | 1003.5 |
| 20260507160859 | 58 | 106 | 1.7 | 6.1 | 0.00 | 0.71 | 0.12 | 59 | 1003.4 |
| 20260507160304 | 58 | 267 | 1.7 | 6.1 | 0.00 | 0.70 | 0.12 | 61 | 1003.6 |
| 20260507160233 | 58 | 267 | 1.7 | 6.1 | 0.00 | 0.70 | 0.12 | 61 | 1003.6 |
| 20260507155959 | 58 | 294 | 0.9 | 6.1 | 0.00 | 0.71 | 0.12 | 61 | 1003.7 |
| 20260507155402 | 59 | 151 | 1.7 | 4.3 | 0.00 | 0.70 | 0.12 | 62 | 1003.7 |
| 20260507155134 | 59 | 159 | 1.7 | 4.3 | 0.00 | 0.70 | 0.12 | 62 | 1003.7 |
| 20260507155059 | 59 | 164 | 1.7 | 4.3 | 0.00 | 0.71 | 0.12 | 62 | 1003.7 |
| 20260507154503 | 59 | 178 | 0.9 | 4.3 | 0.00 | 0.70 | 0.12 | 63 | 1003.7 |
| 20260507154159 | 59 | 210 | 1.7 | 4.3 | 0.00 | 0.71 | 0.12 | 64 | 1003.7 |
| 20260507154035 | 59 | 189 | 1.7 | 6.1 | 0.00 | 0.70 | 0.12 | 64 | 1003.7 |
| 20260507153603 | 59 | 205 | 2.6 | 6.1 | 0.00 | 0.70 | 0.12 | 62 | 1003.8 |
| 20260507153259 | 59 | 191 | 2.6 | 6.1 | 0.00 | 0.71 | 0.12 | 65 | 1003.7 |
| 20260507152934 | 59 | 209 | 0.9 | 5.2 | 0.00 | 0.70 | 0.12 | 65 | 1003.7 |
| 20260507152702 | 59 | 167 | 0.9 | 5.2 | 0.00 | 0.70 | 0.12 | 63 | 1003.6 |
| 20260507152359 | 59 | 217 | 0.9 | 4.3 | 0.00 | 0.71 | 0.12 | 63 | 1003.6 |
| 20260507151834 | 58 | 223 | 0.9 | 5.2 | 0.00 | 0.70 | 0.12 | 68 | 1003.9 |
| 20260507151802 | 58 | 222 | 0.9 | 5.2 | 0.00 | 0.70 | 0.12 | 68 | 1003.7 |
| 20260507151458 | 58 | 223 | 0.9 | 5.2 | 0.00 | 0.71 | 0.12 | 66 | 1003.7 |
| 20260507150903 | 58 | 62 | 0.9 | 4.3 | 0.00 | 0.70 | 0.12 | 67 | 1003.8 |
| 20260507150734 | 58 | 86 | 0.9 | 4.3 | 0.00 | 0.70 | 0.12 | 68 | 1003.8 |
| 20260507150558 | 57 | 81 | 1.7 | 4.3 | 0.00 | 0.71 | 0.12 | 67 | 1003.8 |
| 20260507150002 | 57 | 141 | 1.7 | 6.1 | 0.00 | 0.70 | 0.12 | 67 | 1003.9 |
| 20260507145658 | 57 | 105 | 1.7 | 6.1 | 0.00 | 0.71 | 0.12 | 69 | 1003.8 |
| 20260507145634 | 57 | 80 | 1.7 | 6.1 | 0.00 | 0.70 | 0.12 | 70 | 1003.9 |
| 20260507145103 | 57 | 57 | 1.7 | 6.1 | 0.00 | 0.70 | 0.12 | 72 | 1003.9 |
| 20260507144758 | 57 | 52 | 1.7 | 6.1 | 0.00 | 0.71 | 0.12 | 68 | 1003.9 |
| 20260507144534 | 57 | 188 | 1.7 | 5.2 | 0.00 | 0.70 | 0.12 | 72 | 1003.9 |
| 20260507144203 | 56 | 166 | 1.7 | 5.2 | 0.00 | 0.70 | 0.12 | 70 | 1004.0 |
| 20260507143858 | 56 | 134 | 1.7 | 5.2 | 0.00 | 0.71 | 0.12 | 69 | 1004.0 |
| 20260507143435 | 56 | 104 | 2.6 | 4.3 | 0.00 | 0.70 | 0.12 | 70 | 1004.1 |
| 20260507143303 | 56 | 108 | 2.6 | 4.3 | 0.00 | 0.70 | 0.12 | 72 | 1004.1 |
| 20260507142958 | 56 | 92 | 1.7 | 4.3 | 0.00 | 0.71 | 0.12 | 70 | 1004.1 |
| 20260507142407 | 56 | 9 | 0.9 | 4.3 | 0.00 | 0.70 | 0.12 | 72 | 1004.0 |
| 20260507142335 | 56 | 9 | 0.9 | 4.3 | 0.00 | 0.70 | 0.12 | 72 | 1004.0 |
| 20260507142058 | 56 | 305 | 0.9 | 4.3 | 0.00 | 0.71 | 0.12 | 72 | 1004.1 |
| 20260507141502 | 55 | 122 | 0.9 | 4.3 | 0.00 | 0.70 | 0.12 | 75 | 1004.2 |
| 20260507141234 | 55 | 98 | 0.9 | 4.3 | 0.00 | 0.70 | 0.12 | 75 | 1004.3 |
| 20260507141158 | 55 | 92 | 0.9 | 4.3 | 0.00 | 0.71 | 0.12 | 75 | 1004.3 |
| 20260507140602 | 54 | 352 | 1.7 | 4.3 | 0.00 | 0.70 | 0.12 | 75 | 1004.3 |
| 20260507140258 | 54 | 296 | 1.7 | 4.3 | 0.00 | 0.71 | 0.12 | 75 | 1004.5 |
| 20260507140133 | 54 | 265 | 1.7 | 5.2 | 0.00 | 0.70 | 0.12 | 75 | 1004.4 |
| 20260507135701 | 54 | 246 | 1.7 | 5.2 | 0.00 | 0.70 | 0.12 | 77 | 1004.3 |
| 20260507135358 | 54 | 229 | 0.9 | 5.2 | 0.00 | 0.71 | 0.12 | 77 | 1004.2 |
| 20260507135034 | 53 | 63 | 1.7 | 6.1 | 0.00 | 0.70 | 0.12 | 75 | 1004.3 |
| 20260507134801 | 53 | 53 | 1.7 | 6.1 | 0.00 | 0.70 | 0.12 | 77 | 1004.3 |
| 20260507134458 | 53 | 67 | 1.7 | 6.1 | 0.00 | 0.71 | 0.12 | 76 | 1004.3 |
| 20260507133934 | 53 | 160 | 1.7 | 6.1 | 0.00 | 0.70 | 0.12 | 78 | 1004.3 |
| 20260507133902 | 53 | 181 | 1.7 | 6.1 | 0.00 | 0.70 | 0.12 | 80 | 1004.3 |
| 20260507133558 | 52 | 200 | 0.9 | 6.1 | 0.00 | 0.71 | 0.12 | 78 | 1004.4 |
| 20260507133003 | 52 | 241 | 0.0 | 5.2 | 0.00 | 0.70 | 0.12 | 78 | 1004.5 |
| 20260507132833 | 52 | 246 | 0.0 | 5.2 | 0.00 | 0.70 | 0.12 | 79 | 1004.5 |
| 20260507132658 | 52 | 220 | 0.0 | 2.6 | 0.00 | 0.71 | 0.12 | 80 | 1004.5 |
| 20260507132102 | 52 | 188 | 0.0 | 3.5 | 0.00 | 0.70 | 0.12 | 79 | 1004.4 |
| 20260507131758 | 52 | 188 | 0.0 | 3.5 | 0.00 | 0.71 | 0.12 | 80 | 1004.5 |
| 20260507131734 | 52 | 188 | 0.0 | 3.5 | 0.00 | 0.70 | 0.12 | 80 | 1004.5 |
| 20260507131203 | 52 | 96 | 0.0 | 3.5 | 0.00 | 0.70 | 0.12 | 82 | 1004.5 |
| 20260507130858 | 52 | 55 | 0.0 | 2.6 | 0.00 | 0.71 | 0.12 | 81 | 1004.4 |
| 20260507130633 | 51 | 128 | 0.0 | 3.5 | 0.00 | 0.70 | 0.12 | 81 | 1004.5 |
| 20260507130303 | 51 | 147 | 0.0 | 3.5 | 0.00 | 0.70 | 0.12 | 82 | 1004.6 |
| 20260507125958 | 51 | 147 | 0.0 | 3.5 | 0.00 | 0.71 | 0.12 | 82 | 1004.5 |
| 20260507125533 | 50 | 0 | 0.0 | 0.0 | 0.00 | 0.70 | 0.12 | 81 | 1004.6 |
| 20260507125402 | 50 | 0 | 0.0 | 0.0 | 0.00 | 0.70 | 0.12 | 81 | 1004.5 |
| 20260507125058 | 50 | 0 | 0.0 | 0.0 | 0.00 | 0.71 | 0.12 | 81 | 1004.5 |
| 20260507124504 | 50 | 0 | 0.0 | 0.0 | 0.00 | 0.70 | 0.12 | 84 | 1004.6 |
| 20260507124433 | 50 | 0 | 0.0 | 0.0 | 0.00 | 0.70 | 0.12 | 84 | 1004.6 |
| 20260507124158 | 50 | 0 | 0.0 | 0.0 | 0.00 | 0.71 | 0.12 | 84 | 1004.6 |
| 20260507123602 | 50 | 178 | 0.0 | 4.3 | 0.00 | 0.70 | 0.12 | 84 | 1004.8 |
| 20260507123333 | 50 | 182 | 0.0 | 5.2 | 0.00 | 0.70 | 0.12 | 84 | 1004.8 |
| 20260507123258 | 50 | 178 | 0.0 | 5.2 | 0.00 | 0.71 | 0.12 | 84 | 1004.8 |
| 20260507122702 | 49 | 178 | 0.0 | 5.2 | 0.00 | 0.70 | 0.12 | 86 | 1004.6 |
| 20260507122358 | 49 | 260 | 0.0 | 2.6 | 0.00 | 0.71 | 0.12 | 87 | 1004.6 |
| 20260507122234 | 49 | 221 | 0.0 | 2.6 | 0.00 | 0.70 | 0.12 | 87 | 1004.6 |
| 20260507121840 | 48 | 221 | 0.0 | 2.6 | 0.00 | 0.70 | 0.12 | 88 | 1004.7 |
| 20260507121801 | 48 | 221 | 0.0 | 2.6 | 0.00 | 0.70 | 0.12 | 88 | 1004.7 |
| 20260507121457 | 48 | 0 | 0.0 | 0.0 | 0.00 | 0.71 | 0.12 | 89 | 1004.7 |
| 20260507121134 | 48 | 0 | 0.0 | 0.0 | 0.00 | 0.70 | 0.12 | 90 | 1004.7 |
| 20260507120901 | 48 | 0 | 0.0 | 0.0 | 0.00 | 0.70 | 0.12 | 90 | 1004.7 |
| 20260507120033 | 47 | 0 | 0.0 | 0.0 | 0.00 | 0.70 | 0.12 | 91 | 1004.8 |
| 20260507120003 | 47 | 0 | 0.0 | 0.0 | 0.00 | 0.70 | 0.12 | 91 | 1004.8 |
| 20260507115658 | 46 | 0 | 0.0 | 0.0 | 0.00 | 0.71 | 0.12 | 91 | 1004.8 |
| 20260507115103 | 46 | 0 | 0.0 | 0.0 | 0.00 | 0.70 | 0.12 | 92 | 1004.8 |
| 20260507114933 | 46 | 0 | 0.0 | 0.0 | 0.00 | 0.70 | 0.12 | 92 | 1004.8 |
| 20260507114757 | 46 | 0 | 0.0 | 0.0 | 0.00 | 0.71 | 0.12 | 92 | 1004.9 |
| 20260507114202 | 46 | 0 | 0.0 | 0.0 | 0.00 | 0.70 | 0.12 | 93 | 1004.9 |
| 20260507113857 | 46 | 0 | 0.0 | 0.0 | 0.00 | 0.71 | 0.12 | 93 | 1004.9 |
| 20260507113832 | 46 | 0 | 0.0 | 0.0 | 0.00 | 0.70 | 0.12 | 93 | 1004.9 |
| 20260507113302 | 46 | 0 | 0.0 | 0.0 | 0.00 | 0.70 | 0.12 | 93 | 1004.7 |
| 20260507112957 | 46 | 0 | 0.0 | 0.0 | 0.00 | 0.71 | 0.12 | 93 | 1004.8 |
| 20260507112733 | 46 | 0 | 0.0 | 0.0 | 0.00 | 0.70 | 0.12 | 93 | 1004.8 |
| 20260507112401 | 46 | 0 | 0.0 | 0.0 | 0.00 | 0.70 | 0.12 | 93 | 1005.2 |
| 20260507112057 | 46 | 0 | 0.0 | 0.0 | 0.00 | 0.71 | 0.12 | 93 | 1005.4 |
| 20260507111633 | 46 | 0 | 0.0 | 0.0 | 0.00 | 0.70 | 0.12 | 93 | 1005.3 |
| 20260507111503 | 46 | 0 | 0.0 | 0.0 | 0.00 | 0.70 | 0.12 | 93 | 1005.1 |
| 20260507111157 | 46 | 0 | 0.0 | 0.0 | 0.00 | 0.71 | 0.12 | 93 | 1005.0 |
| 20260507110604 | 45 | 0 | 0.0 | 0.0 | 0.00 | 0.70 | 0.12 | 93 | 1004.7 |
| 20260507110532 | 45 | 0 | 0.0 | 0.0 | 0.00 | 0.70 | 0.12 | 93 | 1004.7 |
| 20260507110257 | 45 | 0 | 0.0 | 0.0 | 0.00 | 0.71 | 0.12 | 93 | 1004.7 |
| 20260507105701 | 44 | 0 | 0.0 | 0.0 | 0.00 | 0.70 | 0.12 | 93 | 1005.0 |
| 20260507105433 | 44 | 0 | 0.0 | 0.0 | 0.00 | 0.70 | 0.12 | 93 | 1004.6 |
| 20260507105357 | 44 | 0 | 0.0 | 0.0 | 0.00 | 0.71 | 0.12 | 93 | 1004.6 |
| 20260507104801 | 44 | 0 | 0.0 | 0.0 | 0.00 | 0.70 | 0.12 | 93 | 1004.9 |
| 20260507104457 | 44 | 0 | 0.0 | 0.0 | 0.00 | 0.71 | 0.12 | 93 | 1004.9 |
| 20260507104333 | 44 | 0 | 0.0 | 0.0 | 0.00 | 0.70 | 0.12 | 93 | 1004.9 |
| 20260507103901 | 43 | 0 | 0.0 | 0.0 | 0.00 | 0.70 | 0.12 | 93 | 1004.7 |
| 20260507103557 | 43 | 0 | 0.0 | 0.0 | 0.00 | 0.71 | 0.12 | 93 | 1005.0 |
| 20260507103232 | 43 | 0 | 0.0 | 0.0 | 0.00 | 0.70 | 0.12 | 93 | 1004.9 |
| 20260507103001 | 43 | 0 | 0.0 | 0.0 | 0.00 | 0.70 | 0.12 | 93 | 1004.9 |
| 20260507102657 | 43 | 0 | 0.0 | 0.0 | 0.00 | 0.71 | 0.12 | 93 | 1004.5 |
| 20260507102133 | 43 | 0 | 0.0 | 0.0 | 0.00 | 0.70 | 0.12 | 93 | 1004.5 |
| 20260507102101 | 43 | 0 | 0.0 | 0.0 | 0.00 | 0.70 | 0.12 | 93 | 1004.5 |
| 20260507101757 | 43 | 0 | 0.0 | 0.0 | 0.00 | 0.71 | 0.12 | 92 | 1004.4 |
| 20260507101202 | 43 | 0 | 0.0 | 0.0 | 0.00 | 0.70 | 0.12 | 92 | 1004.6 |
| 20260507101032 | 43 | 0 | 0.0 | 0.0 | 0.00 | 0.70 | 0.12 | 92 | 1004.6 |
| 20260507100857 | 43 | 0 | 0.0 | 0.0 | 0.00 | 0.71 | 0.12 | 92 | 1004.6 |
| 20260507100302 | 43 | 0 | 0.0 | 0.0 | 0.00 | 0.70 | 0.12 | 92 | 1004.1 |
| 20260507095957 | 43 | 0 | 0.0 | 0.0 | 0.00 | 0.71 | 0.12 | 92 | 1004.2 |
| 20260507095932 | 43 | 0 | 0.0 | 0.0 | 0.00 | 0.70 | 0.12 | 92 | 1004.3 |
| 20260507095401 | 43 | 0 | 0.0 | 0.0 | 0.00 | 0.70 | 0.12 | 92 | 1004.3 |
| 20260507095057 | 43 | 0 | 0.0 | 0.0 | 0.00 | 0.71 | 0.12 | 92 | 1004.2 |
| 20260507094831 | 43 | 0 | 0.0 | 0.0 | 0.00 | 0.70 | 0.12 | 92 | 1004.3 |
| 20260507094502 | 43 | 0 | 0.0 | 0.0 | 0.00 | 0.70 | 0.12 | 92 | 1004.1 |
| 20260507094157 | 43 | 0 | 0.0 | 0.0 | 0.00 | 0.71 | 0.12 | 92 | 1004.2 |
| 20260507093733 | 43 | 0 | 0.0 | 0.0 | 0.00 | 0.70 | 0.12 | 92 | 1004.4 |
| 20260507093600 | 43 | 0 | 0.0 | 0.0 | 0.00 | 0.70 | 0.12 | 92 | 1004.3 |
| 20260507093257 | 43 | 0 | 0.0 | 0.0 | 0.00 | 0.71 | 0.12 | 92 | 1004.3 |
| 20260507092704 | 43 | 0 | 0.0 | 0.0 | 0.00 | 0.70 | 0.12 | 92 | 1004.3 |
| 20260507092633 | 43 | 0 | 0.0 | 0.0 | 0.00 | 0.70 | 0.12 | 92 | 1004.3 |
| 20260507092357 | 43 | 0 | 0.0 | 0.0 | 0.00 | 0.71 | 0.12 | 92 | 1004.1 |
| 20260507091801 | 43 | 0 | 0.0 | 0.0 | 0.00 | 0.70 | 0.12 | 92 | 1004.3 |
| 20260507091532 | 43 | 0 | 0.0 | 0.0 | 0.00 | 0.70 | 0.12 | 92 | 1004.4 |
| 20260507090902 | 44 | 0 | 0.0 | 0.0 | 0.00 | 0.70 | 0.12 | 92 | 1004.3 |
| 20260507090557 | 44 | 0 | 0.0 | 0.0 | 0.00 | 0.71 | 0.12 | 92 | 1004.4 |
| 20260507090433 | 44 | 0 | 0.0 | 0.0 | 0.00 | 0.70 | 0.12 | 92 | 1004.5 |
| 20260507090001 | 44 | 0 | 0.0 | 0.0 | 0.00 | 0.70 | 0.12 | 92 | 1004.9 |
| 20260507085657 | 44 | 0 | 0.0 | 0.0 | 0.00 | 0.71 | 0.12 | 92 | 1004.7 |
| 20260507085332 | 44 | 0 | 0.0 | 0.0 | 0.00 | 0.70 | 0.12 | 92 | 1004.5 |
| 20260507085100 | 44 | 0 | 0.0 | 0.0 | 0.00 | 0.70 | 0.12 | 92 | 1004.4 |
| 20260507084757 | 44 | 0 | 0.0 | 0.0 | 0.00 | 0.71 | 0.12 | 92 | 1004.0 |
| 20260507084232 | 44 | 0 | 0.0 | 0.0 | 0.00 | 0.70 | 0.12 | 92 | 1004.0 |
| 20260507084200 | 44 | 0 | 0.0 | 0.0 | 0.00 | 0.70 | 0.12 | 92 | 1004.0 |
| 20260507083857 | 44 | 0 | 0.0 | 0.0 | 0.00 | 0.71 | 0.12 | 92 | 1004.1 |
| 20260507083300 | 45 | 0 | 0.0 | 0.0 | 0.00 | 0.70 | 0.12 | 92 | 1004.1 |
| 20260507083133 | 45 | 0 | 0.0 | 0.0 | 0.00 | 0.70 | 0.12 | 92 | 1003.9 |
| 20260507082956 | 45 | 0 | 0.0 | 0.0 | 0.00 | 0.71 | 0.12 | 92 | 1003.9 |
| 20260507082401 | 45 | 0 | 0.0 | 0.0 | 0.00 | 0.70 | 0.12 | 92 | 1004.0 |
| 20260507082056 | 45 | 0 | 0.0 | 0.0 | 0.00 | 0.71 | 0.12 | 92 | 1004.0 |
| 20260507082032 | 45 | 0 | 0.0 | 0.0 | 0.00 | 0.70 | 0.12 | 92 | 1004.0 |
| 20260507081500 | 45 | 0 | 0.0 | 0.0 | 0.00 | 0.70 | 0.12 | 92 | 1003.7 |
| 20260507080932 | 45 | 0 | 0.0 | 0.0 | 0.00 | 0.70 | 0.12 | 92 | 1004.1 |
| 20260507080601 | 46 | 0 | 0.0 | 0.0 | 0.00 | 0.70 | 0.12 | 92 | 1004.0 |
| 20260507080256 | 46 | 0 | 0.0 | 0.0 | 0.00 | 0.71 | 0.12 | 92 | 1004.0 |
| 20260507075832 | 46 | 0 | 0.0 | 0.0 | 0.00 | 0.70 | 0.12 | 92 | 1003.9 |
| 20260507075735 | 46 | 0 | 0.0 | 0.0 | 0.00 | 0.70 | 0.12 | 92 | 1004.1 |
| 20260507075700 | 46 | 0 | 0.0 | 0.0 | 0.00 | 0.70 | 0.12 | 92 | 1004.1 |
| 20260507075356 | 46 | 0 | 0.0 | 0.0 | 0.00 | 0.71 | 0.12 | 92 | 1004.2 |
| 20260507074804 | 46 | 0 | 0.0 | 0.0 | 0.00 | 0.70 | 0.12 | 92 | 1004.0 |
| 20260507074732 | 46 | 0 | 0.0 | 0.0 | 0.00 | 0.70 | 0.12 | 92 | 1004.0 |
| 20260507073901 | 46 | 0 | 0.0 | 0.0 | 0.00 | 0.70 | 0.12 | 92 | 1003.8 |
| 20260507073632 | 46 | 0 | 0.0 | 0.0 | 0.00 | 0.70 | 0.12 | 92 | 1003.8 |
| 20260507073556 | 46 | 0 | 0.0 | 0.0 | 0.00 | 0.71 | 0.12 | 92 | 1003.8 |
| 20260507073001 | 46 | 0 | 0.0 | 0.0 | 0.00 | 0.70 | 0.12 | 93 | 1003.9 |
| 20260507072531 | 46 | 0 | 0.0 | 0.0 | 0.00 | 0.70 | 0.12 | 93 | 1003.5 |
| 20260507072131 | 46 | 0 | 0.0 | 0.0 | 0.00 | 0.70 | 0.12 | 93 | 1003.8 |
| 20260507072100 | 46 | 0 | 0.0 | 0.0 | 0.00 | 0.70 | 0.12 | 93 | 1003.8 |
| 20260507071756 | 46 | 0 | 0.0 | 0.0 | 0.00 | 0.71 | 0.12 | 93 | 1003.8 |